CDT,Max TemperatureF,Mean TemperatureF,Min TemperatureF,Max Dew PointF,MeanDew PointF,Min DewpointF,Max Humidity, Mean Humidity, Min Humidity, Max Sea Level PressureIn, Mean Sea Level PressureIn, Min Sea Level PressureIn, Max VisibilityMiles, Mean VisibilityMiles, Min VisibilityMiles, Max Wind SpeedMPH, Mean Wind SpeedMPH, Max Gust SpeedMPH,PrecipitationIn, CloudCover, Events, WindDirDegrees
2013-3-1,78,64,50,40,28,17,61,31,10,30.30,30.22,30.13,10,10,10,12,2,20,0.00,0,,256
2013-3-2,75,62,48,40,32,26,69,39,16,30.43,30.32,30.24,10,10,10,14,6,21,0.00,0,,356
2013-3-3,83,62,41,53,39,32,76,45,16,30.31,30.17,30.02,10,10,10,18,7,25,0.00,0,,179
2013-3-4,95,79,63,64,54,41,81,52,15,30.01,29.86,29.73,10,10,10,22,13,26,0.00,1,,171
2013-3-5,76,66,56,64,44,25,91,50,18,30.32,30.10,29.80,10,10,7,26,12,39,0.00,2,,1
2013-3-6,73,60,46,48,32,21,76,38,21,30.42,30.31,30.23,10,10,10,20,7,24,0.00,0,,52
2013-3-7,80,65,50,66,57,45,89,72,48,30.22,30.14,30.07,10,10,10,18,6,26,0.00,5,,105
2013-3-8,81,74,68,68,66,63,92,77,54,30.10,30.03,29.98,10,10,7,20,11,25,0.00,6,,129
2013-3-9,89,80,72,68,66,63,84,69,41,29.99,29.80,29.66,10,10,7,25,16,37,0.00,6,,152
2013-3-10,84,74,64,69,45,28,91,42,14,30.08,29.84,29.59,10,10,7,29,17,36,0.00,3,,354
2013-3-11,79,62,46,40,28,21,59,28,12,30.18,30.09,30.01,10,10,10,15,7,24,0.00,0,,343
2013-3-12,86,65,44,52,39,27,74,45,12,30.23,30.13,30.06,10,10,10,14,4,20,0.00,0,,154
2013-3-13,82,65,48,59,52,43,90,64,34,30.39,30.31,30.23,10,10,10,15,4,21,0.00,0,,79
2013-3-14,82,64,47,58,51,42,97,67,24,30.37,30.30,30.22,10,8,3,15,5,24,0.00,2,,129
2013-3-15,86,67,48,58,51,42,98,62,22,30.27,30.14,30.01,10,9,0,20,8,25,0.00,0,,149
2013-3-16,88,74,60,66,60,57,95,67,34,30.05,29.89,29.77,10,10,7,22,10,31,0.00,2,,155
2013-3-17,97,83,69,70,64,53,88,63,23,29.82,29.72,29.60,10,10,7,18,12,24,0.00,4,,147
2013-3-18,99,83,67,69,59,33,96,62,10,29.84,29.75,29.69,10,8,3,16,6,24,0.00,3,,41
2013-3-19,91,76,63,70,66,62,97,74,39,29.98,29.87,29.77,10,7,1,14,6,20,0.00,3,,82
2013-3-20,82,73,64,70,60,51,93,65,36,30.13,30.03,29.87,10,9,3,21,11,32,0.00,4,,71
2013-3-21,83,69,56,67,61,54,94,72,50,30.06,29.82,29.64,10,9,5,17,5,23,0.00,5,,140
2013-3-22,89,80,73,71,69,67,90,73,51,29.72,29.65,29.59,10,9,7,14,10,22,0.00,7,,141
2013-3-23,95,82,68,71,67,56,97,71,27,29.70,29.63,29.54,10,7,0,15,5,20,0.00,4,,40
2013-3-24,72,64,55,66,36,17,97,46,13,30.11,29.94,29.67,10,8,0,24,9,37,0.00,2,,357
2013-3-25,68,60,50,35,29,21,47,33,17,30.34,30.24,30.10,10,10,10,17,10,23,0.00,1,,58
2013-3-26,72,60,48,40,33,30,51,38,21,30.44,30.37,30.31,10,10,7,17,7,23,0.00,2,,73
2013-3-27,74,64,55,57,49,40,65,53,43,30.34,30.24,30.17,10,10,7,16,7,22,0.00,8,,119
2013-3-28,79,72,67,64,60,55,82,66,45,30.19,30.14,30.10,10,10,4,16,9,21,0.00,7,,130
2013-3-29,86,73,61,65,61,57,94,68,38,30.16,30.10,30.02,10,10,5,18,8,26,0.00,4,,124
2013-3-30,91,78,64,68,64,58,95,70,33,30.09,30.00,29.89,10,10,7,17,6,22,0.00,5,,136
2013-3-31,96,82,70,70,66,59,91,68,29,29.98,29.87,29.72,10,10,2,17,10,23,0.14,3,,141